sensor_id;sensor_type;location;lat;lon;timestamp;P1;durP1;ratioP1;P2;durP2;ratioP2
66946;SDS011;53853;51.982;5.928;2023-06-01T00:01:49;13.70;;;9.35;;
66946;SDS011;53853;51.982;5.928;2023-06-01T00:04:19;13.20;;;9.48;;
66946;SDS011;53853;51.982;5.928;2023-06-01T00:06:49;14.40;;;9.38;;
66946;SDS011;53853;51.982;5.928;2023-06-01T00:09:18;17.75;;;12.23;;
66946;SDS011;53853;51.982;5.928;2023-06-01T00:11:48;13.98;;;11.15;;
66946;SDS011;53853;51.982;5.928;2023-06-01T00:14:21;13.88;;;9.82;;
66946;SDS011;53853;51.982;5.928;2023-06-01T00:16:51;12.73;;;9.02;;
66946;SDS011;53853;51.982;5.928;2023-06-01T00:19:21;10.27;;;8.82;;
66946;SDS011;53853;51.982;5.928;2023-06-01T00:21:53;13.02;;;8.43;;
66946;SDS011;53853;51.982;5.928;2023-06-01T00:24:23;14.65;;;10.68;;
66946;SDS011;53853;51.982;5.928;2023-06-01T00:26:53;13.00;;;9.88;;
66946;SDS011;53853;51.982;5.928;2023-06-01T00:29:26;11.27;;;8.07;;
66946;SDS011;53853;51.982;5.928;2023-06-01T00:31:56;11.73;;;9.45;;
66946;SDS011;53853;51.982;5.928;2023-06-01T00:34:26;13.30;;;8.43;;
66946;SDS011;53853;51.982;5.928;2023-06-01T00:36:56;13.40;;;9.23;;
66946;SDS011;53853;51.982;5.928;2023-06-01T00:39:26;11.15;;;8.15;;
66946;SDS011;53853;51.982;5.928;2023-06-01T00:41:56;14.73;;;9.80;;
66946;SDS011;53853;51.982;5.928;2023-06-01T00:44:30;13.20;;;9.70;;
66946;SDS011;53853;51.982;5.928;2023-06-01T00:47:00;13.05;;;9.40;;
66946;SDS011;53853;51.982;5.928;2023-06-01T00:49:30;15.40;;;10.75;;
66946;SDS011;53853;51.982;5.928;2023-06-01T00:52:00;12.50;;;9.27;;
66946;SDS011;53853;51.982;5.928;2023-06-01T00:54:30;15.13;;;10.38;;
66946;SDS011;53853;51.982;5.928;2023-06-01T00:57:00;15.60;;;8.43;;
66946;SDS011;53853;51.982;5.928;2023-06-01T00:59:34;12.00;;;7.70;;
66946;SDS011;53853;51.982;5.928;2023-06-01T01:02:05;12.18;;;8.95;;
66946;SDS011;53853;51.982;5.928;2023-06-01T01:04:35;13.52;;;8.93;;
66946;SDS011;53853;51.982;5.928;2023-06-01T01:07:06;13.27;;;7.97;;
66946;SDS011;53853;51.982;5.928;2023-06-01T01:09:49;11.50;;;8.63;;
66946;SDS011;53853;51.982;5.928;2023-06-01T01:12:26;11.82;;;8.65;;
66946;SDS011;53853;51.982;5.928;2023-06-01T01:15:05;14.13;;;8.43;;
66946;SDS011;53853;51.982;5.928;2023-06-01T01:17:42;13.57;;;8.23;;
66946;SDS011;53853;51.982;5.928;2023-06-01T01:20:18;12.80;;;8.15;;
66946;SDS011;53853;51.982;5.928;2023-06-01T01:26:07;13.38;;;8.95;;
66946;SDS011;53853;51.982;5.928;2023-06-01T01:28:46;13.18;;;6.97;;
66946;SDS011;53853;51.982;5.928;2023-06-01T01:31:19;12.43;;;7.35;;
66946;SDS011;53853;51.982;5.928;2023-06-01T01:33:53;10.13;;;6.82;;
66946;SDS011;53853;51.982;5.928;2023-06-01T01:36:24;10.90;;;7.38;;
66946;SDS011;53853;51.982;5.928;2023-06-01T01:38:56;13.77;;;7.80;;
66946;SDS011;53853;51.982;5.928;2023-06-01T01:41:26;13.00;;;7.50;;
66946;SDS011;53853;51.982;5.928;2023-06-01T01:43:58;12.25;;;6.75;;
66946;SDS011;53853;51.982;5.928;2023-06-01T01:46:29;8.13;;;5.03;;
66946;SDS011;53853;51.982;5.928;2023-06-01T01:49:07;13.07;;;7.50;;
66946;SDS011;53853;51.982;5.928;2023-06-01T01:51:43;11.30;;;7.60;;
66946;SDS011;53853;51.982;5.928;2023-06-01T01:54:17;10.48;;;6.47;;
66946;SDS011;53853;51.982;5.928;2023-06-01T01:56:48;10.63;;;5.78;;
66946;SDS011;53853;51.982;5.928;2023-06-01T01:59:21;7.15;;;5.35;;
66946;SDS011;53853;51.982;5.928;2023-06-01T02:04:22;10.60;;;6.80;;
66946;SDS011;53853;51.982;5.928;2023-06-01T02:06:52;11.10;;;7.10;;
66946;SDS011;53853;51.982;5.928;2023-06-01T02:09:23;11.70;;;7.68;;
66946;SDS011;53853;51.982;5.928;2023-06-01T02:11:53;13.68;;;8.93;;
66946;SDS011;53853;51.982;5.928;2023-06-01T02:14:25;9.77;;;7.63;;
66946;SDS011;53853;51.982;5.928;2023-06-01T02:16:55;10.60;;;7.95;;
66946;SDS011;53853;51.982;5.928;2023-06-01T02:19:26;10.85;;;8.18;;
66946;SDS011;53853;51.982;5.928;2023-06-01T02:21:56;10.90;;;7.88;;
66946;SDS011;53853;51.982;5.928;2023-06-01T02:24:26;13.68;;;9.35;;
66946;SDS011;53853;51.982;5.928;2023-06-01T02:26:56;9.45;;;7.70;;
66946;SDS011;53853;51.982;5.928;2023-06-01T02:29:29;11.48;;;7.25;;
66946;SDS011;53853;51.982;5.928;2023-06-01T02:31:58;12.00;;;6.68;;
66946;SDS011;53853;51.982;5.928;2023-06-01T02:34:28;9.52;;;6.22;;
66946;SDS011;53853;51.982;5.928;2023-06-01T02:36:58;11.20;;;8.05;;
66946;SDS011;53853;51.982;5.928;2023-06-01T02:39:28;11.55;;;7.05;;
66946;SDS011;53853;51.982;5.928;2023-06-01T02:41:58;16.98;;;8.80;;
66946;SDS011;53853;51.982;5.928;2023-06-01T02:44:30;12.77;;;7.30;;
66946;SDS011;53853;51.982;5.928;2023-06-01T02:47:00;9.93;;;6.07;;
66946;SDS011;53853;51.982;5.928;2023-06-01T02:49:31;9.25;;;6.70;;
66946;SDS011;53853;51.982;5.928;2023-06-01T02:52:01;9.25;;;6.68;;
66946;SDS011;53853;51.982;5.928;2023-06-01T02:54:31;14.50;;;8.95;;
66946;SDS011;53853;51.982;5.928;2023-06-01T02:57:11;10.52;;;6.60;;
66946;SDS011;53853;51.982;5.928;2023-06-01T02:59:50;12.23;;;8.02;;
66946;SDS011;53853;51.982;5.928;2023-06-01T03:02:20;11.50;;;8.27;;
66946;SDS011;53853;51.982;5.928;2023-06-01T03:04:51;10.35;;;6.45;;
66946;SDS011;53853;51.982;5.928;2023-06-01T03:07:21;16.38;;;8.73;;
66946;SDS011;53853;51.982;5.928;2023-06-01T03:09:54;17.55;;;8.10;;
66946;SDS011;53853;51.982;5.928;2023-06-01T03:12:46;11.82;;;7.82;;
66946;SDS011;53853;51.982;5.928;2023-06-01T03:15:19;11.13;;;6.85;;
66946;SDS011;53853;51.982;5.928;2023-06-01T03:17:49;12.43;;;7.68;;
66946;SDS011;53853;51.982;5.928;2023-06-01T03:20:19;12.05;;;7.13;;
66946;SDS011;53853;51.982;5.928;2023-06-01T03:22:49;9.48;;;6.05;;
66946;SDS011;53853;51.982;5.928;2023-06-01T03:25:19;12.52;;;7.70;;
66946;SDS011;53853;51.982;5.928;2023-06-01T03:27:50;17.55;;;9.60;;
66946;SDS011;53853;51.982;5.928;2023-06-01T03:30:24;13.65;;;7.85;;
66946;SDS011;53853;51.982;5.928;2023-06-01T03:32:54;9.88;;;7.15;;
66946;SDS011;53853;51.982;5.928;2023-06-01T03:35:24;11.02;;;7.32;;
66946;SDS011;53853;51.982;5.928;2023-06-01T03:37:54;8.38;;;5.85;;
66946;SDS011;53853;51.982;5.928;2023-06-01T03:40:24;11.32;;;7.00;;
66946;SDS011;53853;51.982;5.928;2023-06-01T03:42:54;8.23;;;6.32;;
66946;SDS011;53853;51.982;5.928;2023-06-01T03:45:26;10.43;;;5.82;;
66946;SDS011;53853;51.982;5.928;2023-06-01T03:47:57;11.40;;;7.40;;
66946;SDS011;53853;51.982;5.928;2023-06-01T03:50:26;10.30;;;6.97;;
66946;SDS011;53853;51.982;5.928;2023-06-01T03:52:59;12.57;;;8.80;;
66946;SDS011;53853;51.982;5.928;2023-06-01T03:55:30;9.23;;;6.80;;
66946;SDS011;53853;51.982;5.928;2023-06-01T03:58:09;10.05;;;7.40;;
66946;SDS011;53853;51.982;5.928;2023-06-01T04:00:42;8.93;;;6.22;;
66946;SDS011;53853;51.982;5.928;2023-06-01T04:03:13;13.90;;;6.90;;
66946;SDS011;53853;51.982;5.928;2023-06-01T04:08:24;13.52;;;6.82;;
66946;SDS011;53853;51.982;5.928;2023-06-01T04:10:58;9.63;;;6.32;;
66946;SDS011;53853;51.982;5.928;2023-06-01T04:13:27;12.00;;;7.35;;
66946;SDS011;53853;51.982;5.928;2023-06-01T04:16:00;12.18;;;6.43;;
66946;SDS011;53853;51.982;5.928;2023-06-01T04:18:31;10.82;;;6.97;;
66946;SDS011;53853;51.982;5.928;2023-06-01T04:21:01;9.57;;;5.90;;
66946;SDS011;53853;51.982;5.928;2023-06-01T04:23:32;11.15;;;6.35;;
66946;SDS011;53853;51.982;5.928;2023-06-01T04:26:03;9.20;;;5.95;;
66946;SDS011;53853;51.982;5.928;2023-06-01T04:28:33;8.50;;;5.95;;
66946;SDS011;53853;51.982;5.928;2023-06-01T04:31:13;12.30;;;6.05;;
66946;SDS011;53853;51.982;5.928;2023-06-01T04:33:46;10.63;;;5.50;;
66946;SDS011;53853;51.982;5.928;2023-06-01T04:36:19;9.65;;;6.65;;
66946;SDS011;53853;51.982;5.928;2023-06-01T04:38:52;10.38;;;5.78;;
66946;SDS011;53853;51.982;5.928;2023-06-01T04:41:23;12.35;;;6.47;;
66946;SDS011;53853;51.982;5.928;2023-06-01T04:43:55;7.90;;;5.57;;
66946;SDS011;53853;51.982;5.928;2023-06-01T04:46:27;7.35;;;5.57;;
66946;SDS011;53853;51.982;5.928;2023-06-01T04:48:59;13.32;;;6.88;;
66946;SDS011;53853;51.982;5.928;2023-06-01T04:51:30;8.43;;;5.53;;
66946;SDS011;53853;51.982;5.928;2023-06-01T04:54:02;9.73;;;5.60;;
66946;SDS011;53853;51.982;5.928;2023-06-01T04:56:33;15.13;;;7.22;;
66946;SDS011;53853;51.982;5.928;2023-06-01T04:59:04;7.45;;;5.55;;
66946;SDS011;53853;51.982;5.928;2023-06-01T05:01:37;13.05;;;6.43;;
66946;SDS011;53853;51.982;5.928;2023-06-01T05:04:07;11.38;;;6.75;;
66946;SDS011;53853;51.982;5.928;2023-06-01T05:06:37;10.77;;;6.95;;
66946;SDS011;53853;51.982;5.928;2023-06-01T05:09:06;8.70;;;4.90;;
66946;SDS011;53853;51.982;5.928;2023-06-01T05:11:36;8.00;;;5.20;;
66946;SDS011;53853;51.982;5.928;2023-06-01T05:14:06;9.65;;;5.93;;
66946;SDS011;53853;51.982;5.928;2023-06-01T05:16:39;12.65;;;5.63;;
66946;SDS011;53853;51.982;5.928;2023-06-01T05:19:09;11.40;;;6.45;;
66946;SDS011;53853;51.982;5.928;2023-06-01T05:21:41;11.05;;;6.07;;
66946;SDS011;53853;51.982;5.928;2023-06-01T05:24:13;11.15;;;6.22;;
66946;SDS011;53853;51.982;5.928;2023-06-01T05:26:42;8.27;;;5.68;;
66946;SDS011;53853;51.982;5.928;2023-06-01T05:29:12;19.02;;;6.65;;
66946;SDS011;53853;51.982;5.928;2023-06-01T05:31:45;10.70;;;6.85;;
66946;SDS011;53853;51.982;5.928;2023-06-01T05:34:15;9.43;;;6.10;;
66946;SDS011;53853;51.982;5.928;2023-06-01T05:36:45;17.30;;;7.50;;
66946;SDS011;53853;51.982;5.928;2023-06-01T05:39:15;14.45;;;7.43;;
66946;SDS011;53853;51.982;5.928;2023-06-01T05:41:45;11.55;;;6.53;;
66946;SDS011;53853;51.982;5.928;2023-06-01T05:44:15;13.43;;;6.93;;
66946;SDS011;53853;51.982;5.928;2023-06-01T05:46:48;10.15;;;6.35;;
66946;SDS011;53853;51.982;5.928;2023-06-01T05:49:19;8.52;;;6.32;;
66946;SDS011;53853;51.982;5.928;2023-06-01T05:51:49;8.65;;;5.75;;
66946;SDS011;53853;51.982;5.928;2023-06-01T05:54:19;11.48;;;6.28;;
66946;SDS011;53853;51.982;5.928;2023-06-01T05:56:49;11.13;;;4.70;;
66946;SDS011;53853;51.982;5.928;2023-06-01T05:59:19;11.02;;;6.15;;
66946;SDS011;53853;51.982;5.928;2023-06-01T06:01:51;11.88;;;6.78;;
66946;SDS011;53853;51.982;5.928;2023-06-01T06:04:22;10.80;;;5.63;;
66946;SDS011;53853;51.982;5.928;2023-06-01T06:06:51;11.25;;;6.03;;
66946;SDS011;53853;51.982;5.928;2023-06-01T06:09:21;11.40;;;7.13;;
66946;SDS011;53853;51.982;5.928;2023-06-01T06:11:51;9.23;;;6.60;;
66946;SDS011;53853;51.982;5.928;2023-06-01T06:14:21;9.50;;;5.65;;
66946;SDS011;53853;51.982;5.928;2023-06-01T06:16:54;9.80;;;5.90;;
66946;SDS011;53853;51.982;5.928;2023-06-01T06:19:23;11.48;;;6.78;;
66946;SDS011;53853;51.982;5.928;2023-06-01T06:21:53;10.10;;;6.78;;
66946;SDS011;53853;51.982;5.928;2023-06-01T06:24:23;11.90;;;6.13;;
66946;SDS011;53853;51.982;5.928;2023-06-01T06:26:53;15.05;;;7.20;;
66946;SDS011;53853;51.982;5.928;2023-06-01T06:29:23;9.98;;;6.50;;
66946;SDS011;53853;51.982;5.928;2023-06-01T06:31:55;11.68;;;7.15;;
66946;SDS011;53853;51.982;5.928;2023-06-01T06:34:25;12.68;;;8.35;;
66946;SDS011;53853;51.982;5.928;2023-06-01T06:37:01;11.95;;;6.78;;
66946;SDS011;53853;51.982;5.928;2023-06-01T06:39:32;12.10;;;6.60;;
66946;SDS011;53853;51.982;5.928;2023-06-01T06:42:03;11.20;;;6.38;;
66946;SDS011;53853;51.982;5.928;2023-06-01T06:44:34;13.05;;;6.75;;
66946;SDS011;53853;51.982;5.928;2023-06-01T06:47:06;13.00;;;7.30;;
66946;SDS011;53853;51.982;5.928;2023-06-01T06:49:40;9.65;;;5.28;;
66946;SDS011;53853;51.982;5.928;2023-06-01T06:52:10;10.95;;;5.65;;
66946;SDS011;53853;51.982;5.928;2023-06-01T06:54:40;9.82;;;6.28;;
66946;SDS011;53853;51.982;5.928;2023-06-01T06:57:10;10.73;;;6.45;;
66946;SDS011;53853;51.982;5.928;2023-06-01T06:59:40;11.95;;;5.70;;
66946;SDS011;53853;51.982;5.928;2023-06-01T07:02:12;11.10;;;5.78;;
66946;SDS011;53853;51.982;5.928;2023-06-01T07:04:42;9.10;;;5.47;;
66946;SDS011;53853;51.982;5.928;2023-06-01T07:07:12;7.20;;;5.88;;
66946;SDS011;53853;51.982;5.928;2023-06-01T07:09:42;10.88;;;5.35;;
66946;SDS011;53853;51.982;5.928;2023-06-01T07:12:12;10.98;;;6.05;;
66946;SDS011;53853;51.982;5.928;2023-06-01T07:14:42;11.30;;;6.70;;
66946;SDS011;53853;51.982;5.928;2023-06-01T07:17:14;12.27;;;6.65;;
66946;SDS011;53853;51.982;5.928;2023-06-01T07:19:44;14.00;;;6.82;;
66946;SDS011;53853;51.982;5.928;2023-06-01T07:22:14;11.02;;;6.15;;
66946;SDS011;53853;51.982;5.928;2023-06-01T07:24:44;10.18;;;6.53;;
66946;SDS011;53853;51.982;5.928;2023-06-01T07:27:14;12.02;;;6.82;;
66946;SDS011;53853;51.982;5.928;2023-06-01T07:29:45;13.75;;;7.32;;
66946;SDS011;53853;51.982;5.928;2023-06-01T07:32:22;10.95;;;7.20;;
66946;SDS011;53853;51.982;5.928;2023-06-01T07:34:53;10.70;;;5.88;;
66946;SDS011;53853;51.982;5.928;2023-06-01T07:37:23;10.95;;;5.72;;
66946;SDS011;53853;51.982;5.928;2023-06-01T07:39:53;8.40;;;5.45;;
66946;SDS011;53853;51.982;5.928;2023-06-01T07:42:23;10.65;;;5.10;;
66946;SDS011;53853;51.982;5.928;2023-06-01T07:44:53;11.88;;;7.93;;
66946;SDS011;53853;51.982;5.928;2023-06-01T07:47:27;13.82;;;6.75;;
66946;SDS011;53853;51.982;5.928;2023-06-01T07:49:57;10.13;;;6.80;;
66946;SDS011;53853;51.982;5.928;2023-06-01T07:52:27;8.80;;;6.07;;
66946;SDS011;53853;51.982;5.928;2023-06-01T07:54:56;8.98;;;5.00;;
66946;SDS011;53853;51.982;5.928;2023-06-01T07:57:26;7.70;;;5.78;;
66946;SDS011;53853;51.982;5.928;2023-06-01T07:59:56;14.02;;;7.55;;
66946;SDS011;53853;51.982;5.928;2023-06-01T08:02:29;13.85;;;6.97;;
66946;SDS011;53853;51.982;5.928;2023-06-01T08:04:59;11.00;;;6.70;;
66946;SDS011;53853;51.982;5.928;2023-06-01T08:07:29;9.43;;;6.68;;
66946;SDS011;53853;51.982;5.928;2023-06-01T08:09:59;8.02;;;5.85;;
66946;SDS011;53853;51.982;5.928;2023-06-01T08:12:28;14.25;;;6.82;;
66946;SDS011;53853;51.982;5.928;2023-06-01T08:14:58;10.85;;;6.60;;
66946;SDS011;53853;51.982;5.928;2023-06-01T08:17:32;10.95;;;7.43;;
66946;SDS011;53853;51.982;5.928;2023-06-01T08:20:03;11.63;;;7.03;;
66946;SDS011;53853;51.982;5.928;2023-06-01T08:22:36;14.02;;;7.57;;
66946;SDS011;53853;51.982;5.928;2023-06-01T08:25:06;11.88;;;5.90;;
66946;SDS011;53853;51.982;5.928;2023-06-01T08:27:37;10.15;;;6.75;;
66946;SDS011;53853;51.982;5.928;2023-06-01T08:30:07;9.75;;;5.43;;
66946;SDS011;53853;51.982;5.928;2023-06-01T08:32:41;9.95;;;6.43;;
66946;SDS011;53853;51.982;5.928;2023-06-01T08:35:10;10.95;;;6.97;;
66946;SDS011;53853;51.982;5.928;2023-06-01T08:37:41;11.88;;;6.57;;
66946;SDS011;53853;51.982;5.928;2023-06-01T08:40:11;10.30;;;6.35;;
66946;SDS011;53853;51.982;5.928;2023-06-01T08:42:42;9.63;;;6.35;;
66946;SDS011;53853;51.982;5.928;2023-06-01T08:45:18;12.68;;;6.22;;
66946;SDS011;53853;51.982;5.928;2023-06-01T08:47:52;11.38;;;6.07;;
66946;SDS011;53853;51.982;5.928;2023-06-01T08:50:22;11.05;;;7.70;;
66946;SDS011;53853;51.982;5.928;2023-06-01T08:52:55;11.07;;;6.35;;
66946;SDS011;53853;51.982;5.928;2023-06-01T08:55:27;10.55;;;6.80;;
66946;SDS011;53853;51.982;5.928;2023-06-01T08:57:58;9.20;;;6.50;;
66946;SDS011;53853;51.982;5.928;2023-06-01T09:00:28;7.85;;;5.53;;
66946;SDS011;53853;51.982;5.928;2023-06-01T09:03:02;11.80;;;6.65;;
66946;SDS011;53853;51.982;5.928;2023-06-01T09:05:32;11.30;;;6.55;;
66946;SDS011;53853;51.982;5.928;2023-06-01T09:08:02;14.02;;;7.00;;
66946;SDS011;53853;51.982;5.928;2023-06-01T09:10:32;9.48;;;6.85;;
66946;SDS011;53853;51.982;5.928;2023-06-01T09:13:03;12.45;;;8.43;;
66946;SDS011;53853;51.982;5.928;2023-06-01T09:15:33;8.68;;;6.55;;
66946;SDS011;53853;51.982;5.928;2023-06-01T09:18:07;9.30;;;6.10;;
66946;SDS011;53853;51.982;5.928;2023-06-01T09:20:39;8.60;;;5.72;;
66946;SDS011;53853;51.982;5.928;2023-06-01T09:23:10;8.38;;;5.70;;
66946;SDS011;53853;51.982;5.928;2023-06-01T09:26:03;8.38;;;5.90;;
66946;SDS011;53853;51.982;5.928;2023-06-01T09:34:14;10.02;;;5.75;;
66946;SDS011;53853;51.982;5.928;2023-06-01T09:36:45;7.80;;;4.63;;
66946;SDS011;53853;51.982;5.928;2023-06-01T09:39:16;10.20;;;5.40;;
66946;SDS011;53853;51.982;5.928;2023-06-01T09:41:49;8.90;;;4.60;;
66946;SDS011;53853;51.982;5.928;2023-06-01T09:44:24;12.45;;;6.18;;
66946;SDS011;53853;51.982;5.928;2023-06-01T09:46:56;9.80;;;5.50;;
66946;SDS011;53853;51.982;5.928;2023-06-01T09:49:29;7.53;;;5.22;;
66946;SDS011;53853;51.982;5.928;2023-06-01T09:54:41;7.30;;;5.05;;
66946;SDS011;53853;51.982;5.928;2023-06-01T09:57:12;10.30;;;5.95;;
66946;SDS011;53853;51.982;5.928;2023-06-01T09:59:47;9.63;;;5.45;;
66946;SDS011;53853;51.982;5.928;2023-06-01T10:02:18;7.57;;;5.25;;
66946;SDS011;53853;51.982;5.928;2023-06-01T10:04:52;10.13;;;5.97;;
66946;SDS011;53853;51.982;5.928;2023-06-01T10:07:26;8.65;;;4.45;;
66946;SDS011;53853;51.982;5.928;2023-06-01T10:12:31;8.18;;;5.28;;
66946;SDS011;53853;51.982;5.928;2023-06-01T10:15:01;8.60;;;5.00;;
66946;SDS011;53853;51.982;5.928;2023-06-01T10:17:31;7.38;;;4.35;;
66946;SDS011;53853;51.982;5.928;2023-06-01T10:20:07;9.43;;;5.05;;
66946;SDS011;53853;51.982;5.928;2023-06-01T10:22:39;8.55;;;4.82;;
66946;SDS011;53853;51.982;5.928;2023-06-01T10:25:12;10.35;;;5.05;;
66946;SDS011;53853;51.982;5.928;2023-06-01T10:27:51;10.35;;;4.90;;
66946;SDS011;53853;51.982;5.928;2023-06-01T10:30:26;7.72;;;4.50;;
66946;SDS011;53853;51.982;5.928;2023-06-01T10:32:56;9.85;;;4.97;;
66946;SDS011;53853;51.982;5.928;2023-06-01T10:38:31;6.35;;;4.63;;
66946;SDS011;53853;51.982;5.928;2023-06-01T10:43:56;9.95;;;4.50;;
66946;SDS011;53853;51.982;5.928;2023-06-01T10:46:41;11.23;;;4.82;;
66946;SDS011;53853;51.982;5.928;2023-06-01T10:49:12;10.65;;;5.80;;
66946;SDS011;53853;51.982;5.928;2023-06-01T10:51:41;9.27;;;4.97;;
66946;SDS011;53853;51.982;5.928;2023-06-01T10:54:30;7.00;;;4.85;;
66946;SDS011;53853;51.982;5.928;2023-06-01T11:02:45;6.85;;;4.43;;
66946;SDS011;53853;51.982;5.928;2023-06-01T11:11:11;11.85;;;5.40;;
66946;SDS011;53853;51.982;5.928;2023-06-01T11:13:42;11.27;;;5.30;;
66946;SDS011;53853;51.982;5.928;2023-06-01T11:16:27;7.93;;;4.32;;
66946;SDS011;53853;51.982;5.928;2023-06-01T11:18:59;9.10;;;4.90;;
66946;SDS011;53853;51.982;5.928;2023-06-01T11:21:30;11.43;;;5.93;;
66946;SDS011;53853;51.982;5.928;2023-06-01T11:24:04;6.75;;;3.97;;
66946;SDS011;53853;51.982;5.928;2023-06-01T11:26:41;10.55;;;5.10;;
66946;SDS011;53853;51.982;5.928;2023-06-01T11:29:13;8.20;;;4.30;;
66946;SDS011;53853;51.982;5.928;2023-06-01T11:31:45;5.82;;;3.80;;
66946;SDS011;53853;51.982;5.928;2023-06-01T11:34:17;7.82;;;4.30;;
66946;SDS011;53853;51.982;5.928;2023-06-01T11:36:49;8.52;;;4.88;;
66946;SDS011;53853;51.982;5.928;2023-06-01T11:39:21;8.43;;;4.95;;
66946;SDS011;53853;51.982;5.928;2023-06-01T11:42:05;8.15;;;5.32;;
66946;SDS011;53853;51.982;5.928;2023-06-01T11:44:37;7.45;;;4.85;;
66946;SDS011;53853;51.982;5.928;2023-06-01T11:47:09;8.32;;;4.70;;
66946;SDS011;53853;51.982;5.928;2023-06-01T11:49:40;8.38;;;5.45;;
66946;SDS011;53853;51.982;5.928;2023-06-01T11:52:13;7.20;;;4.50;;
66946;SDS011;53853;51.982;5.928;2023-06-01T11:54:44;9.57;;;5.20;;
66946;SDS011;53853;51.982;5.928;2023-06-01T11:57:17;10.77;;;5.22;;
66946;SDS011;53853;51.982;5.928;2023-06-01T11:59:48;8.57;;;5.40;;
66946;SDS011;53853;51.982;5.928;2023-06-01T12:02:19;6.68;;;4.63;;
66946;SDS011;53853;51.982;5.928;2023-06-01T12:04:54;10.23;;;5.57;;
66946;SDS011;53853;51.982;5.928;2023-06-01T12:07:25;8.40;;;4.70;;
66946;SDS011;53853;51.982;5.928;2023-06-01T12:09:55;8.15;;;4.40;;
66946;SDS011;53853;51.982;5.928;2023-06-01T12:12:29;8.23;;;4.85;;
66946;SDS011;53853;51.982;5.928;2023-06-01T12:15:02;7.53;;;4.45;;
66946;SDS011;53853;51.982;5.928;2023-06-01T12:17:46;11.38;;;5.22;;
66946;SDS011;53853;51.982;5.928;2023-06-01T12:20:27;10.02;;;4.60;;
66946;SDS011;53853;51.982;5.928;2023-06-01T12:22:58;8.65;;;4.55;;
66946;SDS011;53853;51.982;5.928;2023-06-01T12:25:29;7.85;;;4.60;;
66946;SDS011;53853;51.982;5.928;2023-06-01T12:28:03;7.75;;;4.13;;
66946;SDS011;53853;51.982;5.928;2023-06-01T12:30:34;7.50;;;4.95;;
66946;SDS011;53853;51.982;5.928;2023-06-01T12:33:04;7.10;;;4.40;;
66946;SDS011;53853;51.982;5.928;2023-06-01T12:35:46;6.50;;;3.65;;
66946;SDS011;53853;51.982;5.928;2023-06-01T12:38:17;5.80;;;3.33;;
66946;SDS011;53853;51.982;5.928;2023-06-01T12:40:50;7.10;;;3.78;;
66946;SDS011;53853;51.982;5.928;2023-06-01T12:43:43;8.00;;;4.13;;
66946;SDS011;53853;51.982;5.928;2023-06-01T12:46:17;10.50;;;4.65;;
66946;SDS011;53853;51.982;5.928;2023-06-01T12:51:18;8.02;;;4.50;;
66946;SDS011;53853;51.982;5.928;2023-06-01T12:53:48;11.57;;;4.15;;
66946;SDS011;53853;51.982;5.928;2023-06-01T12:56:18;5.68;;;3.47;;
66946;SDS011;53853;51.982;5.928;2023-06-01T12:58:51;5.90;;;3.50;;
66946;SDS011;53853;51.982;5.928;2023-06-01T13:01:21;8.57;;;3.80;;
66946;SDS011;53853;51.982;5.928;2023-06-01T13:03:51;6.22;;;3.60;;
66946;SDS011;53853;51.982;5.928;2023-06-01T13:06:21;6.70;;;3.92;;
66946;SDS011;53853;51.982;5.928;2023-06-01T13:08:51;7.88;;;4.03;;
66946;SDS011;53853;51.982;5.928;2023-06-01T13:11:21;7.45;;;3.75;;
66946;SDS011;53853;51.982;5.928;2023-06-01T13:13:54;4.82;;;2.95;;
66946;SDS011;53853;51.982;5.928;2023-06-01T13:16:24;6.80;;;3.80;;
66946;SDS011;53853;51.982;5.928;2023-06-01T13:18:53;8.38;;;4.03;;
66946;SDS011;53853;51.982;5.928;2023-06-01T13:21:23;5.40;;;3.60;;
66946;SDS011;53853;51.982;5.928;2023-06-01T13:23:53;7.40;;;3.63;;
66946;SDS011;53853;51.982;5.928;2023-06-01T13:26:23;5.38;;;3.03;;
66946;SDS011;53853;51.982;5.928;2023-06-01T13:28:55;6.15;;;3.00;;
66946;SDS011;53853;51.982;5.928;2023-06-01T13:31:25;7.72;;;3.28;;
66946;SDS011;53853;51.982;5.928;2023-06-01T13:33:56;7.65;;;3.60;;
66946;SDS011;53853;51.982;5.928;2023-06-01T13:36:26;8.25;;;4.75;;
66946;SDS011;53853;51.982;5.928;2023-06-01T13:38:56;7.20;;;4.05;;
66946;SDS011;53853;51.982;5.928;2023-06-01T13:41:26;8.45;;;4.15;;
66946;SDS011;53853;51.982;5.928;2023-06-01T13:43:59;6.60;;;3.47;;
66946;SDS011;53853;51.982;5.928;2023-06-01T13:46:29;10.88;;;4.65;;
66946;SDS011;53853;51.982;5.928;2023-06-01T13:48:59;7.35;;;3.75;;
66946;SDS011;53853;51.982;5.928;2023-06-01T13:51:29;5.95;;;4.15;;
66946;SDS011;53853;51.982;5.928;2023-06-01T13:53:59;6.93;;;4.28;;
66946;SDS011;53853;51.982;5.928;2023-06-01T13:56:29;6.97;;;4.18;;
66946;SDS011;53853;51.982;5.928;2023-06-01T13:59:01;6.72;;;3.80;;
66946;SDS011;53853;51.982;5.928;2023-06-01T14:01:31;6.22;;;4.03;;
66946;SDS011;53853;51.982;5.928;2023-06-01T14:04:01;8.43;;;4.47;;
66946;SDS011;53853;51.982;5.928;2023-06-01T14:06:31;7.78;;;4.85;;
66946;SDS011;53853;51.982;5.928;2023-06-01T14:09:02;8.43;;;3.80;;
66946;SDS011;53853;51.982;5.928;2023-06-01T14:11:32;8.85;;;4.65;;
66946;SDS011;53853;51.982;5.928;2023-06-01T14:14:04;9.50;;;4.50;;
66946;SDS011;53853;51.982;5.928;2023-06-01T14:16:34;5.90;;;4.45;;
66946;SDS011;53853;51.982;5.928;2023-06-01T14:19:04;6.40;;;3.78;;
66946;SDS011;53853;51.982;5.928;2023-06-01T14:21:34;7.68;;;4.00;;
66946;SDS011;53853;51.982;5.928;2023-06-01T14:24:04;5.88;;;3.55;;
66946;SDS011;53853;51.982;5.928;2023-06-01T14:26:34;7.05;;;4.30;;
66946;SDS011;53853;51.982;5.928;2023-06-01T14:29:06;6.88;;;4.60;;
66946;SDS011;53853;51.982;5.928;2023-06-01T14:31:36;7.78;;;4.40;;
66946;SDS011;53853;51.982;5.928;2023-06-01T14:34:07;7.80;;;4.05;;
66946;SDS011;53853;51.982;5.928;2023-06-01T14:36:37;7.88;;;4.10;;
66946;SDS011;53853;51.982;5.928;2023-06-01T14:39:07;7.78;;;4.65;;
66946;SDS011;53853;51.982;5.928;2023-06-01T14:41:37;11.18;;;4.68;;
66946;SDS011;53853;51.982;5.928;2023-06-01T14:44:10;11.80;;;4.13;;
66946;SDS011;53853;51.982;5.928;2023-06-01T14:46:40;7.90;;;4.40;;
66946;SDS011;53853;51.982;5.928;2023-06-01T14:49:10;8.88;;;4.38;;
66946;SDS011;53853;51.982;5.928;2023-06-01T14:51:39;9.10;;;4.13;;
66946;SDS011;53853;51.982;5.928;2023-06-01T14:54:09;12.25;;;4.55;;
66946;SDS011;53853;51.982;5.928;2023-06-01T14:56:39;6.65;;;3.42;;
66946;SDS011;53853;51.982;5.928;2023-06-01T14:59:12;8.38;;;4.20;;
66946;SDS011;53853;51.982;5.928;2023-06-01T15:01:42;11.13;;;5.07;;
66946;SDS011;53853;51.982;5.928;2023-06-01T15:04:12;6.82;;;3.88;;
66946;SDS011;53853;51.982;5.928;2023-06-01T15:06:42;6.18;;;4.20;;
66946;SDS011;53853;51.982;5.928;2023-06-01T15:09:12;6.45;;;3.35;;
66946;SDS011;53853;51.982;5.928;2023-06-01T15:11:42;9.85;;;3.72;;
66946;SDS011;53853;51.982;5.928;2023-06-01T15:14:15;4.95;;;3.95;;
66946;SDS011;53853;51.982;5.928;2023-06-01T15:16:45;7.90;;;3.60;;
66946;SDS011;53853;51.982;5.928;2023-06-01T15:19:15;10.05;;;3.55;;
66946;SDS011;53853;51.982;5.928;2023-06-01T15:21:44;6.93;;;4.00;;
66946;SDS011;53853;51.982;5.928;2023-06-01T15:24:14;7.88;;;3.60;;
66946;SDS011;53853;51.982;5.928;2023-06-01T15:26:44;6.97;;;3.67;;
66946;SDS011;53853;51.982;5.928;2023-06-01T15:29:16;7.13;;;3.60;;
66946;SDS011;53853;51.982;5.928;2023-06-01T15:31:47;6.38;;;3.78;;
66946;SDS011;53853;51.982;5.928;2023-06-01T15:34:16;6.00;;;3.38;;
66946;SDS011;53853;51.982;5.928;2023-06-01T15:36:46;8.10;;;3.50;;
66946;SDS011;53853;51.982;5.928;2023-06-01T15:39:16;7.25;;;4.55;;
66946;SDS011;53853;51.982;5.928;2023-06-01T15:41:46;6.45;;;4.10;;
66946;SDS011;53853;51.982;5.928;2023-06-01T15:44:19;5.25;;;4.10;;
66946;SDS011;53853;51.982;5.928;2023-06-01T15:46:49;4.75;;;3.28;;